createdAt,value
2023-05-08T00:02:21.795Z,102162.19
2023-05-08T00:04:49.573Z,102174.03
2023-05-08T00:07:17.454Z,102163.19
2023-05-08T00:09:46.076Z,102167.69
2023-05-08T00:12:13.910Z,102173.16
2023-05-08T00:14:41.800Z,102164.41
2023-05-08T00:17:09.642Z,102166.81
2023-05-08T00:19:38.920Z,102173.34
2023-05-08T00:22:06.819Z,102166.66
2023-05-08T00:24:34.623Z,102177.81
2023-05-08T00:27:02.368Z,102173.16
2023-05-08T00:29:30.135Z,102166.13
2023-05-08T00:31:58.038Z,102169.06
2023-05-08T00:34:25.924Z,102157.34
2023-05-08T00:36:57.607Z,102157.72
2023-05-08T00:39:25.476Z,102154.09
2023-05-08T00:41:53.921Z,102164.09
2023-05-08T00:44:21.774Z,102160.63
2023-05-08T00:46:50.197Z,102162.69
2023-05-08T00:49:18.815Z,102167.69
2023-05-08T00:51:49.271Z,102158.75
2023-05-08T00:54:18.561Z,102158.22
2023-05-08T00:56:46.992Z,102157.03
2023-05-08T00:59:17.501Z,102159.44
2023-05-08T01:01:47.797Z,102153.75
2023-05-08T01:04:33.576Z,102152.22
2023-05-08T01:07:02.706Z,102153.44
2023-05-08T01:09:32.045Z,102152.19
2023-05-08T01:12:08.739Z,102151.19
2023-05-08T01:14:48.719Z,102146.88
2023-05-08T01:17:25.734Z,102152.19
2023-05-08T01:20:15.347Z,102146.69
2023-05-08T01:23:06.454Z,102144.16
2023-05-08T01:26:12.746Z,102146.69
2023-05-08T01:29:11.336Z,102145.84
2023-05-08T01:31:53.133Z,102143.25
2023-05-08T01:34:26.004Z,102149.78
2023-05-08T01:36:59.359Z,102151.50
2023-05-08T01:39:35.922Z,102153.53
2023-05-08T01:42:09.195Z,102152.69
2023-05-08T01:44:42.581Z,102147.00
2023-05-08T01:47:12.694Z,102148.91
2023-05-08T01:49:46.035Z,102140.50
2023-05-08T01:52:29.094Z,102149.75
2023-05-08T01:54:59.920Z,102154.22
2023-05-08T01:57:31.094Z,102151.97
2023-05-08T02:00:02.246Z,102151.97
2023-05-08T02:02:38.679Z,102157.25
2023-05-08T02:05:11.950Z,102140.44
2023-05-08T02:07:42.131Z,102155.75
2023-05-08T02:10:12.703Z,102157.63
2023-05-08T02:12:43.217Z,102164.47
2023-05-08T02:15:14.896Z,102169.63
2023-05-08T02:17:44.894Z,102180.75
2023-05-08T02:20:15.856Z,102185.56
2023-05-08T02:22:45.603Z,102188.84
2023-05-08T02:25:14.765Z,102181.09
2023-05-08T02:27:45.483Z,102174.78
2023-05-08T02:30:16.087Z,102192.25
2023-05-08T02:32:45.468Z,102185.91
2023-05-08T02:35:17.273Z,102195.34
2023-05-08T02:37:47.800Z,102191.53
2023-05-08T02:40:18.062Z,102188.13
2023-05-08T02:42:47.520Z,102191.22
2023-05-08T02:45:15.632Z,102186.56
2023-05-08T02:47:49.511Z,102185.88
2023-05-08T02:50:24.539Z,102188.94
2023-05-08T02:52:59.634Z,102187.22
2023-05-08T02:55:37.133Z,102181.56
2023-05-08T02:58:13.101Z,102180.69
2023-05-08T03:00:48.594Z,102183.31
2023-05-08T03:03:24.088Z,102182.44
2023-05-08T03:05:56.903Z,102179.31
2023-05-08T03:08:30.685Z,102178.25
2023-05-08T03:11:02.361Z,102172.09
2023-05-08T03:13:35.450Z,102172.03
2023-05-08T03:16:04.666Z,102172.19
2023-05-08T03:18:36.073Z,102177.03
2023-05-08T03:21:07.473Z,102173.63
2023-05-08T03:23:38.037Z,102173.75
2023-05-08T03:26:07.128Z,102171.34
2023-05-08T03:28:37.666Z,102176.84
2023-05-08T03:31:07.122Z,102171.50
2023-05-08T03:33:38.202Z,102176.66
2023-05-08T03:36:08.298Z,102175.28
2023-05-08T03:38:36.835Z,102167.91
2023-05-08T03:41:05.913Z,102173.03
2023-05-08T03:43:34.504Z,102172.88
2023-05-08T03:46:06.544Z,102165.66
2023-05-08T03:48:35.401Z,102163.25
2023-05-08T03:51:04.791Z,102168.22
2023-05-08T03:53:36.098Z,102163.38
2023-05-08T03:56:05.461Z,102162.00
2023-05-08T03:58:39.566Z,102161.47
2023-05-08T04:01:12.997Z,102165.06
2023-05-08T04:03:57.910Z,102167.50
2023-05-08T04:06:35.669Z,102160.63
2023-05-08T04:09:14.316Z,102162.78
2023-05-08T04:11:49.165Z,102168.59
2023-05-08T04:14:20.270Z,102163.44
2023-05-08T04:16:51.441Z,102164.25
2023-05-08T04:19:24.202Z,102162.72
2023-05-08T04:21:55.775Z,102165.47
2023-05-08T04:24:28.896Z,102171.47
2023-05-08T04:26:58.122Z,102162.22
2023-05-08T04:29:26.819Z,102160.31
2023-05-08T04:31:55.587Z,102158.22
2023-05-08T04:34:24.286Z,102150.38
2023-05-08T04:36:52.747Z,102161.81
2023-05-08T04:39:22.488Z,102155.13
2023-05-08T04:41:52.739Z,102151.31
2023-05-08T04:44:21.372Z,102160.53
2023-05-08T04:46:50.234Z,102163.66
2023-05-08T04:49:18.702Z,102172.44
2023-05-08T04:51:46.494Z,102167.78
2023-05-08T04:54:15.067Z,102160.94
2023-05-08T04:56:43.106Z,102162.25
2023-05-08T04:59:14.202Z,102163.81
2023-05-08T05:01:43.978Z,102166.56
2023-05-08T05:04:12.397Z,102170.50
2023-05-08T05:06:40.692Z,102175.78
2023-05-08T05:09:09.221Z,102179.91
2023-05-08T05:11:37.447Z,102174.41
2023-05-08T05:14:06.222Z,102176.66
2023-05-08T05:16:35.906Z,102172.69
2023-05-08T05:19:04.919Z,102178.31
2023-05-08T05:21:33.568Z,102182.69
2023-05-08T05:24:01.740Z,102185.00
2023-05-08T05:26:29.492Z,102190.88
2023-05-08T05:28:57.664Z,102178.66
2023-05-08T05:31:25.832Z,102184.66
2023-05-08T05:33:55.415Z,102188.75
2023-05-08T05:36:23.476Z,102186.88
2023-05-08T05:38:51.408Z,102182.56
2023-05-08T05:41:19.453Z,102189.50
2023-05-08T05:43:47.545Z,102189.38
2023-05-08T05:46:15.683Z,102193.75
2023-05-08T05:48:43.722Z,102189.84
2023-05-08T05:51:13.750Z,102207.34
2023-05-08T05:53:41.869Z,102200.66
2023-05-08T05:56:09.635Z,102192.09
2023-05-08T05:58:37.682Z,102200.69
2023-05-08T06:01:05.679Z,102197.81
2023-05-08T06:03:33.723Z,102206.03
2023-05-08T06:06:02.164Z,102203.84
2023-05-08T06:08:31.435Z,102200.88
2023-05-08T06:10:59.513Z,102207.59
2023-05-08T06:13:27.863Z,102205.38
2023-05-08T06:15:57.601Z,102198.25
2023-05-08T06:18:26.427Z,102203.78
2023-05-08T06:20:58.866Z,102203.94
2023-05-08T06:23:27.133Z,102204.84
2023-05-08T06:25:56.715Z,102201.88
2023-05-08T06:28:26.101Z,102199.31
2023-05-08T06:30:54.263Z,102203.22
2023-05-08T06:33:23.582Z,102201.03
2023-05-08T06:35:52.621Z,102198.84
2023-05-08T06:38:20.464Z,102200.00
2023-05-08T06:40:50.160Z,102194.41
2023-05-08T06:43:19.537Z,102189.88
2023-05-08T06:45:47.408Z,102191.75
2023-05-08T06:48:15.313Z,102197.38
2023-05-08T06:50:43.494Z,102196.47
2023-05-08T06:53:11.344Z,102193.88
2023-05-08T06:55:39.085Z,102195.59
2023-05-08T06:58:07.142Z,102199.97
2023-05-08T07:00:36.460Z,102205.56
2023-05-08T07:03:04.543Z,102196.84
2023-05-08T07:05:32.599Z,102204.78
2023-05-08T07:08:00.579Z,102190.78
2023-05-08T07:10:28.855Z,102198.91
2023-05-08T07:12:56.707Z,102192.72
2023-05-08T07:15:26.417Z,102188.13
2023-05-08T07:17:56.525Z,102190.88
2023-05-08T07:20:25.447Z,102190.00
2023-05-08T07:22:53.528Z,102181.63
2023-05-08T07:25:21.357Z,102184.38
2023-05-08T07:27:49.229Z,102181.97
2023-05-08T07:30:17.544Z,102183.88
2023-05-08T07:32:45.397Z,102189.38
2023-05-08T07:35:15.608Z,102184.75
2023-05-08T07:37:44.453Z,102181.81
2023-05-08T07:40:12.857Z,102181.13
2023-05-08T07:42:41.923Z,102186.63
2023-05-08T07:45:11.910Z,102186.81
2023-05-08T07:47:40.456Z,102181.81
2023-05-08T07:50:08.797Z,102178.06
2023-05-08T07:52:38.786Z,102183.53
2023-05-08T07:55:07.979Z,102177.72
2023-05-08T07:57:38.019Z,102174.13
2023-05-08T08:00:07.012Z,102172.22
2023-05-08T08:02:41.372Z,102169.28
2023-05-08T08:05:10.316Z,102173.44
2023-05-08T08:07:39.665Z,102176.66
2023-05-08T08:10:09.348Z,102175.75
2023-05-08T08:12:37.250Z,102180.59
2023-05-08T08:15:06.109Z,102171.66
2023-05-08T08:17:33.935Z,102173.56
2023-05-08T08:20:01.920Z,102175.97
2023-05-08T08:22:29.832Z,102173.75
2023-05-08T08:24:59.296Z,102188.41
2023-05-08T08:27:27.180Z,102184.44
2023-05-08T08:30:08.343Z,102184.94
2023-05-08T08:32:43.282Z,102188.50
2023-05-08T08:35:12.110Z,102192.09
2023-05-08T08:37:40.255Z,102192.94
2023-05-08T08:40:10.620Z,102192.66
2023-05-08T08:42:38.557Z,102190.44
2023-05-08T08:45:07.844Z,102179.16
2023-05-08T08:47:38.361Z,102180.88
2023-05-08T08:50:11.322Z,102185.69
2023-05-08T08:52:49.402Z,102185.00
2023-05-08T08:55:19.532Z,102186.03
2023-05-08T08:58:00.030Z,102174.34
2023-05-08T09:00:31.270Z,102178.34
2023-05-08T09:02:59.418Z,102178.31
2023-05-08T09:05:27.628Z,102172.13
2023-05-08T09:07:56.528Z,102171.63
2023-05-08T09:10:26.832Z,102175.59
2023-05-08T09:12:54.936Z,102161.50
2023-05-08T09:15:22.859Z,102157.56
2023-05-08T09:17:51.013Z,102164.97
2023-05-08T09:20:19.668Z,102158.63
2023-05-08T09:22:47.696Z,102150.16
2023-05-08T09:25:15.907Z,102145.88
2023-05-08T09:27:45.409Z,102140.72
2023-05-08T09:30:15.522Z,102145.53
2023-05-08T09:32:45.126Z,102148.78
2023-05-08T09:35:13.705Z,102141.38
2023-05-08T09:37:43.557Z,102135.81
2023-05-08T09:40:16.587Z,102144.72
2023-05-08T09:42:46.172Z,102140.56
2023-05-08T09:45:27.635Z,102131.47
2023-05-08T09:47:55.678Z,102142.88
2023-05-08T09:50:23.886Z,102143.91
2023-05-08T09:52:51.872Z,102135.31
2023-05-08T09:55:20.119Z,102137.34
2023-05-08T09:57:57.593Z,102139.00
2023-05-08T10:00:26.434Z,102139.19
2023-05-08T10:03:00.232Z,102137.59
2023-05-08T10:05:31.759Z,102142.41
2023-05-08T10:08:18.441Z,102135.38
2023-05-08T10:10:46.699Z,102142.22
2023-05-08T10:13:16.537Z,102138.72
2023-05-08T10:15:45.983Z,102130.47
2023-05-08T10:18:18.147Z,102120.81
2023-05-08T10:20:48.659Z,102120.75
2023-05-08T10:23:19.154Z,102126.94
2023-05-08T10:25:48.751Z,102122.63
2023-05-08T10:28:28.643Z,102128.44
2023-05-08T10:31:00.873Z,102123.72
2023-05-08T10:33:32.452Z,102122.81
2023-05-08T10:36:01.091Z,102124.47
2023-05-08T10:38:29.048Z,102126.75
2023-05-08T10:41:01.456Z,102115.25
2023-05-08T10:43:32.061Z,102114.84
2023-05-08T10:46:10.494Z,102118.94
2023-05-08T10:48:49.139Z,102114.72
2023-05-08T10:51:22.918Z,102101.41
2023-05-08T10:53:54.871Z,102103.69
2023-05-08T10:56:27.357Z,102105.03
2023-05-08T10:58:59.330Z,102106.66
2023-05-08T11:01:28.260Z,102110.59
2023-05-08T11:03:57.016Z,102110.88
2023-05-08T11:06:45.935Z,102111.47
2023-05-08T11:09:22.418Z,102108.81
2023-05-08T11:12:06.806Z,102106.34
2023-05-08T11:14:37.905Z,102096.34
2023-05-08T11:17:07.354Z,102099.13
2023-05-08T11:19:36.488Z,102100.50
2023-05-08T11:22:32.713Z,102098.91
2023-05-08T11:25:03.044Z,102088.06
2023-05-08T11:28:13.823Z,102093.94
2023-05-08T11:30:45.738Z,102081.66
2023-05-08T11:33:18.395Z,102081.53
2023-05-08T11:35:52.543Z,102085.91
2023-05-08T11:38:35.745Z,102089.34
2023-05-08T11:41:08.509Z,102082.16
2023-05-08T11:44:09.562Z,102082.03
2023-05-08T11:46:43.230Z,102079.69
2023-05-08T11:49:17.274Z,102081.25
2023-05-08T11:51:47.172Z,102075.47
2023-05-08T11:54:17.817Z,102073.88
2023-05-08T11:56:47.964Z,102074.03
2023-05-08T11:59:16.493Z,102066.66
2023-05-08T12:01:53.515Z,102068.75
2023-05-08T12:04:24.617Z,102075.06
2023-05-08T12:06:58.517Z,102069.22
2023-05-08T12:09:26.323Z,102071.06
2023-05-08T12:11:58.980Z,102069.50
2023-05-08T12:14:26.886Z,102070.03
2023-05-08T12:16:56.144Z,102065.00
2023-05-08T12:19:24.109Z,102069.50
2023-05-08T12:21:51.974Z,102067.59
2023-05-08T12:24:23.060Z,102060.97
2023-05-08T12:26:54.268Z,102053.06
2023-05-08T12:29:22.798Z,102062.66
2023-05-08T12:31:51.029Z,102055.66
2023-05-08T12:34:21.359Z,102054.38
2023-05-08T12:36:49.160Z,102052.00
2023-05-08T12:39:18.782Z,102042.72
2023-05-08T12:41:50.204Z,102041.50
2023-05-08T12:44:20.183Z,102043.94
2023-05-08T12:46:50.997Z,102042.84
2023-05-08T12:49:28.677Z,102047.84
2023-05-08T12:52:07.054Z,102043.63
2023-05-08T12:54:36.360Z,102042.34
2023-05-08T12:57:10.187Z,102035.53
2023-05-08T12:59:38.154Z,102031.69
2023-05-08T13:02:06.183Z,102023.78
2023-05-08T13:04:39.470Z,102016.56
2023-05-08T13:07:07.265Z,102020.41
2023-05-08T13:09:35.173Z,102026.13
2023-05-08T13:12:03.254Z,102020.81
2023-05-08T13:14:31.086Z,102011.81
2023-05-08T13:16:59.849Z,102004.78
2023-05-08T13:19:28.660Z,102001.59
2023-05-08T13:21:58.073Z,102004.78
2023-05-08T13:24:26.860Z,102009.06
2023-05-08T13:26:54.695Z,101997.94
2023-05-08T13:29:22.501Z,102002.03
2023-05-08T13:31:50.328Z,101998.19
2023-05-08T13:34:18.689Z,102002.88
2023-05-08T13:36:46.881Z,101989.44
2023-05-08T13:39:16.240Z,101985.59
2023-05-08T13:41:44.197Z,101981.75
2023-05-08T13:44:12.136Z,101981.31
2023-05-08T13:46:39.906Z,101975.56
2023-05-08T13:49:07.835Z,101966.19
2023-05-08T13:51:35.624Z,101972.34
2023-05-08T13:54:03.390Z,101967.66
2023-05-08T13:56:32.595Z,101966.59
2023-05-08T13:59:00.392Z,101970.00
2023-05-08T14:01:28.631Z,101960.81
2023-05-08T14:03:56.871Z,101963.16
2023-05-08T14:06:24.797Z,101956.53
2023-05-08T14:08:55.317Z,101959.94
2023-05-08T14:11:24.750Z,101963.34
2023-05-08T14:13:53.895Z,101951.59
2023-05-08T14:16:22.054Z,101942.84
2023-05-08T14:18:49.855Z,101947.53
2023-05-08T14:21:17.880Z,101935.78
2023-05-08T14:23:45.785Z,101943.66
2023-05-08T14:26:14.276Z,101929.56
2023-05-08T14:28:42.132Z,101929.25
2023-05-08T14:31:11.337Z,101932.19
2023-05-08T14:33:39.205Z,101936.47
2023-05-08T14:36:07.674Z,101937.94
2023-05-08T14:38:35.428Z,101931.56
2023-05-08T14:41:04.904Z,101933.66
2023-05-08T14:43:32.964Z,101925.19
2023-05-08T14:46:00.976Z,101923.16
2023-05-08T14:48:30.145Z,101922.72
2023-05-08T14:50:58.621Z,101917.25
2023-05-08T14:53:26.882Z,101920.97
2023-05-08T14:55:55.063Z,101929.56
2023-05-08T14:58:23.438Z,101931.03
2023-05-08T15:00:51.286Z,101926.19
2023-05-08T15:03:19.437Z,101924.97
2023-05-08T15:05:48.959Z,101922.19
2023-05-08T15:08:17.354Z,101921.34
2023-05-08T15:10:45.201Z,101928.53
2023-05-08T15:13:13.414Z,101913.06
2023-05-08T15:15:41.281Z,101910.72
2023-05-08T15:18:09.257Z,101906.69
2023-05-08T15:20:37.293Z,101914.22
2023-05-08T15:23:06.585Z,101916.00
2023-05-08T15:25:34.775Z,101913.06
2023-05-08T15:28:02.718Z,101916.50
2023-05-08T15:30:30.644Z,101911.66
2023-05-08T15:32:58.625Z,101912.53
2023-05-08T15:35:26.647Z,101917.06
2023-05-08T15:37:54.460Z,101915.09
2023-05-08T15:40:23.722Z,101908.06
2023-05-08T15:42:52.598Z,101906.59
2023-05-08T15:45:20.735Z,101908.94
2023-05-08T15:47:48.750Z,101907.63
2023-05-08T15:50:16.826Z,101911.09
2023-05-08T15:52:44.671Z,101902.97
2023-05-08T15:55:12.522Z,101905.75
2023-05-08T15:57:41.745Z,101912.75
2023-05-08T16:00:11.069Z,101902.53
2023-05-08T16:02:39.304Z,101901.25
2023-05-08T16:05:08.032Z,101900.81
2023-05-08T16:07:35.887Z,101912.63
2023-05-08T16:10:05.343Z,101923.47
2023-05-08T16:12:34.646Z,101940.13
2023-05-08T16:15:03.867Z,101952.19
2023-05-08T16:17:31.696Z,101956.72
2023-05-08T16:20:00.774Z,101970.09
2023-05-08T16:22:28.713Z,101980.78
2023-05-08T16:24:56.939Z,101985.63
2023-05-08T16:27:25.051Z,101979.28
2023-05-08T16:29:52.864Z,101982.53
2023-05-08T16:32:22.355Z,101993.91
2023-05-08T16:34:50.214Z,101972.97
2023-05-08T16:37:18.045Z,101982.84
2023-05-08T16:39:46.005Z,101983.66
2023-05-08T16:42:13.935Z,101978.34
2023-05-08T16:44:41.978Z,101966.53
2023-05-08T16:47:10.254Z,101970.63
2023-05-08T16:49:40.687Z,101974.03
2023-05-08T16:52:08.690Z,101974.50
2023-05-08T16:54:36.558Z,101975.53
2023-05-08T16:57:04.663Z,101977.00
2023-05-08T16:59:33.101Z,101979.84
2023-05-08T17:02:00.926Z,101977.94
2023-05-08T17:04:30.735Z,101974.44
2023-05-08T17:07:00.546Z,101982.88
2023-05-08T17:09:29.025Z,101981.47
2023-05-08T17:11:58.372Z,101975.72
2023-05-08T17:14:26.435Z,101968.41
2023-05-08T17:16:54.304Z,101971.25
2023-05-08T17:19:22.304Z,101968.16
2023-05-08T17:21:50.770Z,101960.47
2023-05-08T17:24:20.360Z,101953.34
2023-05-08T17:26:48.766Z,101947.50
2023-05-08T17:29:19.540Z,101945.06
2023-05-08T17:31:47.411Z,101941.91
2023-05-08T17:34:15.416Z,101937.94
2023-05-08T17:36:43.882Z,101946.31
2023-05-08T17:39:12.562Z,101942.50
2023-05-08T17:41:42.226Z,101944.22
2023-05-08T17:44:10.135Z,101944.66
2023-05-08T17:46:38.189Z,101937.81
2023-05-08T17:49:06.203Z,101940.38
2023-05-08T17:51:34.057Z,101930.41
2023-05-08T17:54:02.250Z,101939.16
2023-05-08T17:56:31.775Z,101934.91
2023-05-08T17:59:01.148Z,101937.47
2023-05-08T18:01:30.668Z,101942.38
2023-05-08T18:03:58.830Z,101942.81
2023-05-08T18:06:26.826Z,101940.50
2023-05-08T18:08:54.647Z,101943.47
2023-05-08T18:11:25.262Z,101940.50
2023-05-08T18:13:55.552Z,101935.88
2023-05-08T18:18:52.926Z,101938.84
2023-05-08T18:21:20.723Z,101925.22
2023-05-08T18:23:48.487Z,101920.75
2023-05-08T18:28:45.244Z,101929.22
2023-05-08T18:31:13.651Z,101929.63
2023-05-08T18:33:43.346Z,101946.22
2023-05-08T18:36:11.177Z,101940.88
2023-05-08T18:38:41.776Z,101929.00
2023-05-08T18:41:09.527Z,101944.06
2023-05-08T18:43:37.297Z,101938.97
2023-05-08T18:46:12.467Z,101935.34
2023-05-08T18:48:42.208Z,101930.69
2023-05-08T18:51:10.184Z,101928.31
2023-05-08T18:53:38.913Z,101925.56
2023-05-08T18:56:07.436Z,101931.94
2023-05-08T18:58:35.561Z,101938.34
2023-05-08T19:01:03.485Z,101933.34
2023-05-08T19:03:32.460Z,101931.03
2023-05-08T19:06:01.791Z,101926.09
2023-05-08T19:08:29.678Z,101925.66
2023-05-08T19:10:57.798Z,101930.97
2023-05-08T19:13:25.743Z,101928.63
2023-05-08T19:15:54.394Z,101930.75
2023-05-08T19:18:22.352Z,101939.03
2023-05-08T19:20:50.646Z,101936.25
2023-05-08T19:23:20.076Z,101940.72
2023-05-08T19:25:48.008Z,101943.28
2023-05-08T19:28:15.995Z,101935.88
2023-05-08T19:30:44.187Z,101940.72
2023-05-08T19:33:12.056Z,101933.22
2023-05-08T19:35:39.874Z,101935.81
2023-05-08T19:38:07.799Z,101937.50
2023-05-08T19:40:48.406Z,101935.41
2023-05-08T19:43:23.429Z,101944.56
2023-05-08T19:45:51.829Z,101950.28
2023-05-08T19:48:20.409Z,101954.75
2023-05-08T19:50:48.691Z,101951.34
2023-05-08T19:53:19.287Z,101957.19
2023-05-08T19:55:49.554Z,101946.75
2023-05-08T19:58:18.224Z,101949.88
2023-05-08T20:00:50.962Z,101949.69
2023-05-08T20:03:19.452Z,101952.25
2023-05-08T20:05:47.641Z,101955.22
2023-05-08T20:08:15.545Z,101956.19
2023-05-08T20:10:43.712Z,101951.91
2023-05-08T20:13:13.129Z,101943.63
2023-05-08T20:15:40.940Z,101942.13
2023-05-08T20:18:09.022Z,101932.31
2023-05-08T20:20:36.936Z,101929.75
2023-05-08T20:23:04.749Z,101937.19
2023-05-08T20:25:32.541Z,101927.97
2023-05-08T20:28:00.682Z,101929.84
2023-05-08T20:30:30.008Z,101936.47
2023-05-08T20:33:04.453Z,101946.16
2023-05-08T20:35:32.949Z,101952.06
2023-05-08T20:38:00.669Z,101945.22
2023-05-08T20:40:28.751Z,101936.94
2023-05-08T20:42:56.730Z,101933.31
2023-05-08T20:45:25.448Z,101919.88
2023-05-08T20:47:54.715Z,101919.31
2023-05-08T20:50:22.934Z,101906.38
2023-05-08T20:52:52.101Z,101904.44
2023-05-08T20:55:20.516Z,101911.03
2023-05-08T20:57:49.133Z,101905.75
2023-05-08T21:00:17.327Z,101911.28
2023-05-08T21:02:47.188Z,101915.75
2023-05-08T21:05:16.977Z,101906.94
2023-05-08T21:07:45.408Z,101905.03
2023-05-08T21:10:14.616Z,101896.94
2023-05-08T21:12:44.496Z,101901.13
2023-05-08T21:15:13.196Z,101895.63
2023-05-08T21:17:41.191Z,101881.63
2023-05-08T21:20:10.515Z,101883.34
2023-05-08T21:22:39.664Z,101888.88
2023-05-08T21:25:17.397Z,101888.25
2023-05-08T21:27:46.303Z,101890.38
2023-05-08T21:30:16.674Z,101879.34
2023-05-08T21:32:46.440Z,101880.38
2023-05-08T21:35:15.766Z,101881.69
2023-05-08T21:37:46.175Z,101881.50
2023-05-08T21:40:15.123Z,101872.16
2023-05-08T21:42:43.526Z,101874.28
2023-05-08T21:45:14.918Z,101872.75
2023-05-08T21:47:43.109Z,101866.16
2023-05-08T21:50:11.410Z,101864.47
2023-05-08T21:52:39.214Z,101858.56
2023-05-08T21:55:10.223Z,101870.06
2023-05-08T21:57:38.608Z,101858.34
2023-05-08T22:00:09.009Z,101861.31
2023-05-08T22:02:47.531Z,101855.13
2023-05-08T22:05:15.952Z,101860.19
2023-05-08T22:07:44.600Z,101871.22
2023-05-08T22:10:14.047Z,101873.75
2023-05-08T22:12:42.561Z,101864.78
2023-05-08T22:15:25.574Z,101877.50
2023-05-08T22:17:57.692Z,101885.13
2023-05-08T22:20:26.162Z,101884.72
2023-05-08T22:22:54.001Z,101880.50
2023-05-08T22:25:23.378Z,101886.13
2023-05-08T22:27:51.149Z,101876.78
2023-05-08T22:30:19.048Z,101868.72
2023-05-08T22:32:54.434Z,101861.97
2023-05-08T22:35:23.672Z,101861.03
2023-05-08T22:37:51.592Z,101852.00
2023-05-08T22:40:20.008Z,101857.59
2023-05-08T22:42:49.544Z,101860.63
2023-05-08T22:45:17.635Z,101854.72
2023-05-08T22:47:45.629Z,101850.94
2023-05-08T22:50:13.884Z,101857.31
2023-05-08T22:52:42.164Z,101851.63
2023-05-08T22:55:10.590Z,101846.09
2023-05-08T22:57:38.395Z,101848.47
2023-05-08T23:00:10.517Z,101840.84
2023-05-08T23:02:38.448Z,101847.22
2023-05-08T23:05:07.432Z,101854.38
2023-05-08T23:07:35.598Z,101853.53
2023-05-08T23:10:03.640Z,101846.66
2023-05-08T23:12:31.688Z,101843.06
2023-05-08T23:14:59.575Z,101842.69
2023-05-08T23:17:28.866Z,101834.69
2023-05-08T23:19:56.676Z,101832.59
2023-05-08T23:22:24.614Z,101831.38
2023-05-08T23:24:52.520Z,101833.75
2023-05-08T23:27:20.471Z,101835.25
2023-05-08T23:29:48.641Z,101824.22
2023-05-08T23:32:16.912Z,101817.19
2023-05-08T23:34:46.199Z,101816.72
2023-05-08T23:37:16.692Z,101805.53
2023-05-08T23:39:44.598Z,101811.50
2023-05-08T23:42:13.335Z,101799.63
2023-05-08T23:44:41.053Z,101802.06
2023-05-08T23:47:08.888Z,101794.66
2023-05-08T23:49:36.720Z,101790.88
2023-05-08T23:52:06.658Z,101793.06
2023-05-08T23:54:34.495Z,101786.97
2023-05-08T23:57:02.235Z,101785.06
2023-05-08T23:59:30.049Z,101796.38
